Time;durP1;ratioP1;P1;durP2;ratioP2;P2;SDS_P1;SDS_P2;PMS_P1;PMS_P2;Temp;Humidity;BMP_temperature;BMP_pressure;BME280_temperature;BME280_humidity;BME280_pressure;Samples;Min_cycle;Max_cycle;Signal;HPM_P1;HPM_P2
2021/08/07 00:00:23;;;;;;;13.05;3.88;;;16.30;99.90;;;;;;5059784;28;20048;-61
2021/08/07 00:02:49;;;;;;;11.25;3.50;;;16.30;99.90;;;;;;5054327;28;20413;-60
2021/08/07 00:05:15;;;;;;;9.55;4.07;;;16.40;99.90;;;;;;5058436;28;20053;-60
2021/08/07 00:07:41;;;;;;;7.97;3.83;;;16.40;99.90;;;;;;5052114;28;20045;-61
2021/08/07 00:10:08;;;;;;;9.65;3.25;;;16.40;99.90;;;;;;5058428;28;20045;-60
2021/08/07 00:12:35;;;;;;;8.27;2.53;;;16.40;99.90;;;;;;5051162;28;20086;-60
2021/08/07 00:15:01;;;;;;;16.85;3.58;;;16.40;99.90;;;;;;5058240;28;20067;-60
2021/08/07 00:17:27;;;;;;;7.15;3.65;;;16.40;99.90;;;;;;5063750;28;20045;-60
2021/08/07 00:19:52;;;;;;;12.65;4.47;;;16.40;99.90;;;;;;5053110;28;20120;-62
2021/08/07 00:22:18;;;;;;;11.73;3.75;;;16.40;99.90;;;;;;5059022;28;20044;-62
2021/08/07 00:24:44;;;;;;;10.48;3.60;;;16.40;99.90;;;;;;5051379;28;20049;-61
2021/08/07 00:27:09;;;;;;;13.77;3.78;;;16.40;99.90;;;;;;5057451;28;20069;-61
2021/08/07 00:29:35;;;;;;;16.15;3.50;;;16.40;99.90;;;;;;5050775;28;20226;-62
2021/08/07 00:32:05;;;;;;;8.77;3.47;;;16.40;99.90;;;;;;5055003;28;20091;-61
2021/08/07 00:34:31;;;;;;;12.02;3.42;;;16.40;99.90;;;;;;5061642;28;20079;-62
2021/08/07 00:36:56;;;;;;;8.52;3.10;;;16.40;99.90;;;;;;5056196;28;20049;-61
2021/08/07 00:39:22;;;;;;;14.98;3.78;;;16.40;99.90;;;;;;5062785;28;20100;-61
2021/08/07 00:41:48;;;;;;;12.20;3.42;;;16.40;99.90;;;;;;5055479;28;20127;-62
2021/08/07 00:44:14;;;;;;;15.13;3.47;;;16.40;99.90;;;;;;5062503;28;20044;-62
2021/08/07 00:46:39;;;;;;;11.15;4.68;;;16.40;99.90;;;;;;5054698;28;20056;-62
2021/08/07 00:49:06;;;;;;;13.02;4.13;;;16.30;99.90;;;;;;5061911;28;20049;-60
2021/08/07 00:51:32;;;;;;;7.20;2.85;;;16.30;99.90;;;;;;5058018;28;20071;-62
2021/08/07 00:53:59;;;;;;;11.27;3.53;;;16.40;99.90;;;;;;5060832;28;20045;-62
2021/08/07 00:56:25;;;;;;;10.27;3.50;;;16.40;99.90;;;;;;5052891;28;20069;-61
2021/08/07 00:58:51;;;;;;;6.93;3.17;;;16.40;99.90;;;;;;5060152;28;20393;-62
2021/08/07 01:01:17;;;;;;;10.30;3.17;;;16.40;99.90;;;;;;5053542;28;20049;-61
2021/08/07 01:03:45;;;;;;;13.00;5.20;;;16.40;99.90;;;;;;5053107;28;20049;-61
2021/08/07 01:06:11;;;;;;;10.30;3.30;;;16.40;99.90;;;;;;5053669;28;20045;-61
2021/08/07 01:08:43;;;;;;;9.98;3.40;;;16.30;99.90;;;;;;5056433;28;20063;-60
2021/08/07 01:11:27;;;;;;;9.88;3.03;;;16.30;99.90;;;;;;5054324;28;20052;-63
2021/08/07 01:14:00;;;;;;;9.43;3.85;;;16.30;99.90;;;;;;5057387;28;20052;-62
2021/08/07 01:16:29;;;;;;;13.07;4.25;;;16.30;99.90;;;;;;5062177;28;20041;-61
2021/08/07 01:18:57;;;;;;;14.43;3.85;;;16.30;99.90;;;;;;5053412;28;20137;-61
2021/08/07 01:21:26;;;;;;;;;;;16.30;99.90;;;;;;5060186;28;20115;-61
2021/08/07 01:23:52;;;;;;;9.95;3.80;;;16.30;99.90;;;;;;5053296;28;19932;-61
2021/08/07 01:26:44;;;;;;;10.73;4.05;;;16.30;99.90;;;;;;5058312;28;20037;-61
2021/08/07 01:29:10;;;;;;;9.48;4.10;;;16.30;99.90;;;;;;5051821;28;20064;-61
2021/08/07 01:31:37;;;;;;;9.88;3.80;;;16.30;99.90;;;;;;5058741;28;20097;-61
2021/08/07 01:34:02;;;;;;;11.80;3.92;;;16.20;99.90;;;;;;5058157;28;20044;-60
2021/08/07 01:36:28;;;;;;;8.32;3.60;;;16.20;99.90;;;;;;5056878;28;20140;-61
2021/08/07 01:38:54;;;;;;;14.07;4.63;;;16.20;99.90;;;;;;5053154;28;20099;-61
2021/08/07 01:41:22;;;;;;;11.63;3.95;;;16.10;99.90;;;;;;5054257;28;20045;-61
2021/08/07 01:43:49;;;;;;;11.93;4.75;;;16.20;99.90;;;;;;5056866;28;20072;-61
2021/08/07 01:46:17;;;;;;;14.43;3.87;;;16.20;99.90;;;;;;5056073;28;20103;-60
2021/08/07 01:49:01;;;;;;;9.90;4.38;;;16.30;99.90;;;;;;5066895;28;20045;-60
2021/08/07 01:51:37;;;;;;;9.02;4.07;;;16.30;99.90;;;;;;5058882;28;20063;-60
2021/08/07 01:54:05;;;;;;;10.55;4.00;;;16.30;99.90;;;;;;5066370;28;20124;-61
2021/08/07 01:56:37;;;;;;;12.38;4.65;;;16.30;99.90;;;;;;5058230;28;20049;-60
2021/08/07 01:59:11;;;;;;;5.97;3.05;;;16.30;99.90;;;;;;5065144;28;20052;-61
2021/08/07 02:01:38;;;;;;;9.05;3.70;;;16.30;99.90;;;;;;5065207;28;20041;-60
2021/08/07 02:04:05;;;;;;;11.05;4.20;;;16.30;99.90;;;;;;5059047;28;20044;-61
2021/08/07 02:06:31;;;;;;;6.50;3.70;;;16.30;99.90;;;;;;5061433;28;20071;-61
2021/08/07 02:08:58;;;;;;;10.60;3.08;;;16.30;99.90;;;;;;5061577;28;20048;-61
2021/08/07 02:11:24;;;;;;;12.45;3.65;;;16.30;99.90;;;;;;5057124;28;20144;-60
2021/08/07 02:13:53;;;;;;;9.73;3.13;;;16.30;99.90;;;;;;5058081;28;20574;-60
2021/08/07 02:16:20;;;;;;;9.18;3.30;;;16.30;99.90;;;;;;5058443;28;20045;-60
2021/08/07 02:18:47;;;;;;;6.45;3.13;;;16.30;99.90;;;;;;5055378;28;20088;-61
2021/08/07 02:21:14;;;;;;;9.25;3.20;;;16.20;99.90;;;;;;5058921;28;20056;-60
2021/08/07 02:23:41;;;;;;;6.13;2.88;;;16.20;99.90;;;;;;5053289;28;20046;-61
2021/08/07 02:26:09;;;;;;;8.45;2.65;;;16.20;99.90;;;;;;5064993;28;20121;-61
2021/08/07 02:28:36;;;;;;;7.63;2.90;;;16.20;99.90;;;;;;5060737;28;20049;-60
2021/08/07 02:31:03;;;;;;;5.40;2.67;;;16.20;99.90;;;;;;5063132;28;20045;-62
2021/08/07 02:33:30;;;;;;;7.97;3.30;;;16.00;99.90;;;;;;5061367;28;20096;-62
2021/08/07 02:35:58;;;;;;;9.90;2.83;;;16.00;99.90;;;;;;5059359;28;20501;-61
2021/08/07 02:38:26;;;;;;;10.85;2.83;;;16.00;99.90;;;;;;5062743;28;20037;-61
2021/08/07 02:40:54;;;;;;;5.75;3.22;;;15.90;99.90;;;;;;5057404;28;20044;-61
2021/08/07 02:43:22;;;;;;;8.15;2.40;;;15.90;99.90;;;;;;5062565;28;20125;-61
2021/08/07 02:45:49;;;;;;;8.50;3.23;;;15.80;99.90;;;;;;5056026;28;20054;-61
2021/08/07 02:48:15;;;;;;;8.63;2.53;;;15.70;99.90;;;;;;5062709;28;20110;-61
2021/08/07 02:50:42;;;;;;;6.70;2.10;;;15.60;99.90;;;;;;5054796;28;20076;-61
2021/08/07 02:53:13;;;;;;;8.10;2.70;;;15.60;99.90;;;;;;5061875;28;20045;-62
2021/08/07 02:55:39;;;;;;;8.05;2.47;;;15.50;99.90;;;;;;5053589;28;20050;-61
2021/08/07 02:58:06;;;;;;;5.70;2.60;;;15.50;99.90;;;;;;5060919;28;20108;-62
2021/08/07 03:00:34;;;;;;;7.40;2.55;;;15.60;99.90;;;;;;5053739;28;20087;-61
2021/08/07 03:03:00;;;;;;;7.97;2.40;;;15.50;99.90;;;;;;5060434;28;20048;-62
2021/08/07 03:05:29;;;;;;;5.82;2.20;;;15.50;99.90;;;;;;5052154;28;20416;-62
2021/08/07 03:07:55;;;;;;;10.02;2.63;;;15.40;99.90;;;;;;5066102;28;20049;-62
2021/08/07 03:10:22;;;;;;;5.68;2.33;;;15.40;99.90;;;;;;5064634;28;20081;-61
2021/08/07 03:12:49;;;;;;;9.03;2.60;;;15.30;99.90;;;;;;5056861;28;20041;-61
2021/08/07 03:15:15;;;;;;;;;;;15.30;99.90;;;;;;5064210;28;20314;-62
2021/08/07 03:17:41;;;;;;;10.93;2.75;;;15.30;99.90;;;;;;5056502;28;20287;-62
2021/08/07 03:20:08;;;;;;;8.23;2.85;;;15.30;99.90;;;;;;5062675;28;20041;-61
2021/08/07 03:22:34;;;;;;;7.63;2.33;;;15.20;99.90;;;;;;5055803;28;20045;-62
2021/08/07 03:25:00;;;;;;;5.68;2.90;;;15.20;99.90;;;;;;5062237;28;20753;-62
2021/08/07 03:27:26;;;;;;;7.03;2.55;;;15.20;99.90;;;;;;5054239;28;20045;-61
2021/08/07 03:29:52;;;;;;;13.93;2.97;;;15.20;99.90;;;;;;5061514;28;20101;-61
2021/08/07 03:32:20;;;;;;;10.32;2.65;;;15.10;99.90;;;;;;5053801;28;20041;-62
2021/08/07 03:34:45;;;;;;;6.65;2.72;;;15.10;99.90;;;;;;5060944;28;20049;-61
2021/08/07 03:37:12;;;;;;;7.45;2.30;;;15.10;99.90;;;;;;5052545;28;20440;-61
2021/08/07 03:39:39;;;;;;;10.57;2.80;;;15.00;99.90;;;;;;5059837;28;20053;-62
2021/08/07 03:42:05;;;;;;;;;;;15.00;99.90;;;;;;5052930;28;20049;-62
2021/08/07 03:44:31;;;;;;;8.13;2.65;;;15.00;99.90;;;;;;5058891;28;19921;-62
2021/08/07 03:46:57;;;;;;;4.85;2.65;;;15.00;99.90;;;;;;5054221;28;20061;-62
2021/08/07 03:49:24;;;;;;;7.20;3.13;;;15.00;99.90;;;;;;5056282;28;20045;-61
2021/08/07 03:51:51;;;;;;;9.23;3.55;;;15.00;99.90;;;;;;5054493;28;20571;-62
2021/08/07 03:54:17;;;;;;;10.27;3.50;;;14.90;99.90;;;;;;5053608;28;20045;-61
2021/08/07 03:56:43;;;;;;;10.30;2.83;;;14.90;99.90;;;;;;5058410;28;20495;-62
2021/08/07 03:59:09;;;;;;;6.57;2.88;;;14.90;99.90;;;;;;5056979;28;20052;-62
2021/08/07 04:01:35;;;;;;;9.57;3.40;;;14.80;99.90;;;;;;5063249;28;20036;-62
2021/08/07 04:04:01;;;;;;;10.90;3.33;;;14.80;99.90;;;;;;5058158;28;20056;-61
2021/08/07 04:06:27;;;;;;;7.20;3.30;;;14.80;99.90;;;;;;5059621;28;20131;-62
2021/08/07 04:08:53;;;;;;;9.68;3.35;;;14.70;99.90;;;;;;5059129;28;20052;-61
2021/08/07 04:11:18;;;;;;;10.05;2.60;;;14.70;99.90;;;;;;5055378;28;20068;-62
2021/08/07 04:13:44;;;;;;;7.43;2.55;;;14.70;99.90;;;;;;5059250;28;20076;-62
2021/08/07 04:16:10;;;;;;;8.05;3.38;;;14.60;99.90;;;;;;5051250;28;20037;-62
2021/08/07 04:18:36;;;;;;;10.48;3.45;;;14.60;99.90;;;;;;5060227;28;20513;-62
2021/08/07 04:21:01;;;;;;;11.45;4.15;;;14.70;99.90;;;;;;5061646;28;20048;-62
2021/08/07 04:23:27;;;;;;;8.98;4.05;;;14.60;99.90;;;;;;5057601;28;20056;-61
2021/08/07 04:25:53;;;;;;;7.15;3.10;;;14.50;99.90;;;;;;5063301;28;20079;-61
2021/08/07 04:28:18;;;;;;;12.13;4.20;;;14.50;99.90;;;;;;5056481;28;20041;-61
2021/08/07 04:30:44;;;;;;;8.55;3.30;;;14.50;99.90;;;;;;5062716;28;20049;-60
2021/08/07 04:33:10;;;;;;;11.13;3.72;;;14.50;99.90;;;;;;5054909;28;20051;-61
2021/08/07 04:35:37;;;;;;;14.05;3.75;;;14.50;99.90;;;;;;5061074;28;20073;-60
2021/08/07 04:38:03;;;;;;;8.80;3.70;;;14.40;99.90;;;;;;5053923;28;20053;-60
2021/08/07 04:40:30;;;;;;;12.18;4.03;;;14.50;99.90;;;;;;5060433;28;20076;-61
2021/08/07 04:42:56;;;;;;;9.00;3.33;;;14.50;99.90;;;;;;5053176;28;20045;-61
2021/08/07 04:45:22;;;;;;;10.68;3.42;;;14.60;99.90;;;;;;5059909;28;20099;-61
2021/08/07 04:48:04;;;;;;;10.98;3.75;;;14.50;99.90;;;;;;5052046;28;20075;-61
2021/08/07 04:50:32;;;;;;;9.43;3.67;;;14.60;99.90;;;;;;5058595;28;20120;-61
2021/08/07 04:52:59;;;;;;;8.55;3.00;;;14.70;99.90;;;;;;5051671;28;20033;-61
2021/08/07 04:55:26;;;;;;;10.40;3.58;;;14.70;99.90;;;;;;5058588;28;20049;-61
2021/08/07 04:57:52;;;;;;;9.10;3.75;;;14.70;99.90;;;;;;5050358;28;20067;-62
2021/08/07 05:00:19;;;;;;;12.80;3.35;;;14.70;99.90;;;;;;5054839;28;20104;-62
2021/08/07 05:02:46;;;;;;;14.35;4.13;;;14.70;99.90;;;;;;5053541;28;20075;-61
2021/08/07 05:05:13;;;;;;;11.30;3.38;;;14.70;99.90;;;;;;5056822;28;20057;-61
2021/08/07 05:07:40;;;;;;;12.07;3.40;;;14.80;99.90;;;;;;5049863;28;20042;-61
2021/08/07 05:10:08;;;;;;;12.82;3.65;;;14.80;99.90;;;;;;5048126;28;20052;-62
2021/08/07 05:12:34;;;;;;;14.10;4.00;;;14.80;99.90;;;;;;5058629;28;20124;-60
2021/08/07 05:15:00;;;;;;;9.27;3.78;;;14.80;99.90;;;;;;5051448;28;20101;-61
2021/08/07 05:17:27;;;;;;;10.07;3.38;;;14.90;99.90;;;;;;5058540;28;20041;-61
2021/08/07 05:19:53;;;;;;;6.82;2.83;;;14.90;99.90;;;;;;5056206;28;20109;-60
2021/08/07 05:22:20;;;;;;;9.43;3.58;;;14.90;99.90;;;;;;5059803;28;20119;-60
2021/08/07 05:24:45;;;;;;;13.63;3.50;;;15.00;99.90;;;;;;5057329;28;20042;-61
2021/08/07 05:27:11;;;;;;;7.95;2.75;;;15.00;99.90;;;;;;5057324;28;20060;-62
2021/08/07 05:29:37;;;;;;;10.07;2.97;;;15.10;99.90;;;;;;5059309;28;20041;-61
2021/08/07 05:32:04;;;;;;;9.05;3.28;;;15.10;99.90;;;;;;5061495;28;20048;-61
2021/08/07 05:34:29;;;;;;;8.20;3.10;;;15.20;99.90;;;;;;5066770;28;20041;-61
2021/08/07 05:36:55;;;;;;;8.98;2.80;;;15.20;99.90;;;;;;5059433;28;20054;-61
2021/08/07 05:39:21;;;;;;;13.00;3.20;;;15.20;99.90;;;;;;5065164;28;20045;-61
2021/08/07 05:41:47;;;;;;;11.35;3.55;;;15.20;99.90;;;;;;5061454;28;20072;-61
2021/08/07 05:44:13;;;;;;;11.23;3.50;;;15.20;99.90;;;;;;5062232;28;20041;-61
2021/08/07 05:46:38;;;;;;;15.73;3.45;;;15.20;99.90;;;;;;5062187;28;20064;-61
2021/08/07 05:49:04;;;;;;;9.27;3.20;;;15.20;99.90;;;;;;5059248;28;20037;-61
2021/08/07 05:51:33;;;;;;;11.20;2.80;;;15.20;99.90;;;;;;5063089;28;20100;-61
2021/08/07 05:53:59;;;;;;;10.43;2.78;;;15.20;99.90;;;;;;5057914;28;20128;-61
2021/08/07 05:56:25;;;;;;;11.53;3.37;;;15.20;99.90;;;;;;5063489;28;20049;-61
2021/08/07 05:58:51;;;;;;;7.95;3.20;;;15.30;99.90;;;;;;5056635;28;20040;-61
2021/08/07 06:01:16;;;;;;;10.32;3.53;;;15.30;99.90;;;;;;5063153;28;20063;-61
2021/08/07 06:03:42;;;;;;;7.25;2.85;;;15.30;99.90;;;;;;5055944;28;20041;-61
2021/08/07 06:06:08;;;;;;;12.20;3.53;;;15.40;99.90;;;;;;5061992;28;20124;-61
2021/08/07 06:08:33;;;;;;;17.95;2.70;;;15.50;99.90;;;;;;5054965;28;20556;-61
2021/08/07 06:10:59;;;;;;;8.35;3.40;;;15.50;99.90;;;;;;5057013;28;20053;-61
2021/08/07 06:13:26;;;;;;;11.27;3.45;;;15.60;99.90;;;;;;5063381;28;20045;-61
2021/08/07 06:15:51;;;;;;;14.00;3.58;;;15.70;99.90;;;;;;5056405;28;20044;-61
2021/08/07 06:18:18;;;;;;;11.63;2.97;;;15.80;99.90;;;;;;5063212;28;20450;-61
2021/08/07 06:20:44;;;;;;;13.90;3.10;;;15.90;99.90;;;;;;5055103;28;20631;-61
2021/08/07 06:23:10;;;;;;;7.15;3.03;;;16.10;99.90;;;;;;5062492;28;20047;-61
2021/08/07 06:25:36;;;;;;;22.35;3.88;;;16.40;99.90;;;;;;5054546;28;20072;-61
2021/08/07 06:28:03;;;;;;;11.45;3.25;;;16.60;99.90;;;;;;5061285;28;20049;-61
2021/08/07 06:30:29;;;;;;;10.13;2.87;;;16.90;99.90;;;;;;5053730;28;20049;-61
2021/08/07 06:32:55;;;;;;;6.40;2.72;;;17.00;99.90;;;;;;5061207;28;20074;-61
2021/08/07 06:35:21;;;;;;;10.30;3.08;;;17.10;99.90;;;;;;5052566;28;20056;-61
2021/08/07 06:37:48;;;;;;;12.25;2.97;;;17.00;99.90;;;;;;5059841;28;20557;-61
2021/08/07 06:40:15;;;;;;;9.20;2.72;;;17.00;99.90;;;;;;5064095;28;20067;-61
2021/08/07 06:42:41;;;;;;;11.82;3.05;;;16.90;99.90;;;;;;5059019;28;20056;-62
2021/08/07 06:45:08;;;;;;;8.52;2.92;;;16.90;99.90;;;;;;5065922;28;20126;-61
2021/08/07 06:47:34;;;;;;;9.02;2.70;;;16.80;99.90;;;;;;5057969;28;20062;-61
2021/08/07 06:50:00;;;;;;;8.93;3.67;;;16.80;99.90;;;;;;5065206;28;20049;-61
2021/08/07 06:52:25;;;;;;;7.75;2.67;;;16.70;99.90;;;;;;5056854;28;20050;-61
2021/08/07 06:54:51;;;;;;;14.60;3.70;;;16.80;99.90;;;;;;5064102;28;20065;-61
2021/08/07 06:57:20;;;;;;;8.85;2.90;;;16.80;99.90;;;;;;5057797;28;20048;-61
2021/08/07 06:59:46;;;;;;;12.38;3.33;;;16.80;99.90;;;;;;5062297;28;20459;-61
2021/08/07 07:02:11;;;;;;;15.45;3.35;;;16.80;99.90;;;;;;5058296;28;20041;-61
2021/08/07 07:04:37;;;;;;;6.10;2.65;;;16.90;99.90;;;;;;5059656;28;20045;-61
2021/08/07 07:07:04;;;;;;;10.70;2.65;;;16.90;99.90;;;;;;5059572;28;20120;-61
2021/08/07 07:09:30;;;;;;;8.85;2.22;;;16.90;99.90;;;;;;5056079;28;20064;-61
2021/08/07 07:11:56;;;;;;;5.35;2.17;;;17.00;99.90;;;;;;5061239;28;20041;-61
2021/08/07 07:14:22;;;;;;;8.68;2.25;;;17.00;99.90;;;;;;5061729;28;20124;-61
2021/08/07 07:16:48;;;;;;;6.57;2.55;;;17.10;99.90;;;;;;5058667;28;20103;-61
2021/08/07 07:19:15;;;;;;;8.95;2.53;;;16.90;99.90;;;;;;5063001;28;20361;-61
2021/08/07 07:21:41;;;;;;;6.25;2.22;;;17.00;99.90;;;;;;5056316;28;20052;-62
2021/08/07 07:24:07;;;;;;;8.75;2.45;;;17.10;99.90;;;;;;5063544;28;20079;-61
2021/08/07 07:26:33;;;;;;;8.82;2.28;;;17.00;99.90;;;;;;5055602;28;20037;-61
2021/08/07 07:28:59;;;;;;;8.70;2.67;;;17.00;99.90;;;;;;5062439;28;20115;-61
2021/08/07 07:31:26;;;;;;;8.50;2.70;;;17.10;99.90;;;;;;5055323;28;20051;-62
2021/08/07 07:33:52;;;;;;;13.45;2.70;;;17.00;99.90;;;;;;5062014;28;20114;-62
2021/08/07 07:36:18;;;;;;;9.13;2.58;;;16.90;99.90;;;;;;5053305;28;20055;-62
2021/08/07 07:38:45;;;;;;;8.05;2.35;;;17.00;99.90;;;;;;5060322;28;20056;-62
2021/08/07 07:41:11;;;;;;;6.22;2.20;;;17.30;99.90;;;;;;5050570;28;20051;-60
2021/08/07 07:43:37;;;;;;;8.63;2.37;;;17.70;99.90;;;;;;5059489;28;20049;-60
2021/08/07 07:46:04;;;;;;;8.48;2.40;;;18.00;99.90;;;;;;5051805;28;20045;-62
2021/08/07 07:48:30;;;;;;;5.43;2.20;;;18.20;99.90;;;;;;5059234;28;20041;-60
2021/08/07 07:50:56;;;;;;;8.75;2.75;;;18.40;99.90;;;;;;5050774;28;20140;-60
2021/08/07 07:53:22;;;;;;;7.55;2.30;;;18.60;99.90;;;;;;5058019;28;20045;-60
2021/08/07 07:55:48;;;;;;;11.25;2.60;;;18.60;99.90;;;;;;5050330;28;20406;-60
2021/08/07 07:58:14;;;;;;;9.55;2.75;;;18.70;99.90;;;;;;5057141;28;20037;-61
2021/08/07 08:00:40;;;;;;;9.27;2.30;;;18.70;99.90;;;;;;5063959;28;20116;-60
2021/08/07 08:03:06;;;;;;;8.85;2.03;;;18.80;99.90;;;;;;5056309;28;20044;-60
2021/08/07 08:05:31;;;;;;;5.75;2.65;;;18.70;99.90;;;;;;5062465;28;20045;-60
2021/08/07 08:07:57;;;;;;;7.38;2.80;;;18.70;99.90;;;;;;5055725;28;20152;-60
2021/08/07 08:10:23;;;;;;;11.10;2.85;;;18.70;99.90;;;;;;5058261;28;20048;-60
2021/08/07 08:12:50;;;;;;;5.28;1.75;;;18.80;99.90;;;;;;5054327;28;20049;-61
2021/08/07 08:15:16;;;;;;;5.75;1.70;;;19.00;99.90;;;;;;5054238;28;21039;-61
2021/08/07 08:17:42;;;;;;;8.77;2.50;;;19.00;99.90;;;;;;5055505;28;20045;-61
2021/08/07 08:20:09;;;;;;;8.48;1.90;;;19.00;99.90;;;;;;5051660;28;20454;-60
2021/08/07 08:22:35;;;;;;;9.45;2.40;;;19.30;99.90;;;;;;5063514;28;20063;-60
2021/08/07 08:25:01;;;;;;;10.15;2.13;;;19.30;99.90;;;;;;5056913;28;20045;-62
2021/08/07 08:27:27;;;;;;;7.95;1.90;;;19.50;99.90;;;;;;5061704;28;20135;-59
2021/08/07 08:29:54;;;;;;;7.68;2.00;;;19.60;99.90;;;;;;5058082;28;20469;-60
2021/08/07 08:32:20;;;;;;;7.60;1.73;;;19.40;99.90;;;;;;5059182;28;20041;-60
2021/08/07 08:34:45;;;;;;;5.70;1.75;;;19.60;99.90;;;;;;5059328;28;20053;-60
2021/08/07 08:37:11;;;;;;;10.73;2.03;;;19.50;99.90;;;;;;5055674;28;20052;-60
2021/08/07 08:39:37;;;;;;;6.35;2.05;;;19.40;99.90;;;;;;5060809;28;20045;-60
2021/08/07 08:42:05;;;;;;;4.50;1.85;;;19.40;99.90;;;;;;5054203;28;20053;-60
2021/08/07 08:44:34;;;;;;;5.30;1.55;;;19.50;99.90;;;;;;5060872;28;20071;-60
2021/08/07 08:47:00;;;;;;;2.90;1.40;;;19.80;99.90;;;;;;5046147;28;20053;-60
2021/08/07 08:49:28;;;;;;;11.50;2.38;;;19.60;99.90;;;;;;5060140;28;20068;-61
2021/08/07 08:51:54;;;;;;;4.53;1.50;;;19.70;99.90;;;;;;5052539;28;20041;-60
2021/08/07 08:54:20;;;;;;;5.00;1.70;;;19.90;99.90;;;;;;5059423;28;20115;-60
2021/08/07 08:56:47;;;;;;;7.53;1.85;;;19.90;99.90;;;;;;5050341;28;20087;-61
2021/08/07 08:59:14;;;;;;;;;;;19.90;99.90;;;;;;5058775;28;20045;-60
2021/08/07 09:01:40;;;;;;;5.10;1.52;;;20.00;99.90;;;;;;5050954;28;19921;-60
2021/08/07 09:04:06;;;;;;;5.18;1.52;;;20.10;99.90;;;;;;5057332;28;20052;-60
2021/08/07 09:06:32;;;;;;;6.50;1.70;;;20.30;99.90;;;;;;5049647;28;20040;-60
2021/08/07 09:08:59;;;;;;;8.55;1.73;;;20.10;99.90;;;;;;5056169;28;20481;-60
2021/08/07 09:11:25;;;;;;;6.33;1.60;;;20.20;99.90;;;;;;5058909;28;20048;-60
2021/08/07 09:14:31;;;;;;;5.78;1.50;;;20.00;99.90;;;;;;5051331;28;20884;-60
2021/08/07 09:17:00;;;;;;;3.78;1.45;;;20.00;99.90;;;;;;5058473;28;20059;-60
2021/08/07 09:19:28;;;;;;;5.57;2.15;;;19.90;99.90;;;;;;5051833;28;20118;-60
2021/08/07 09:22:17;;;;;;;3.20;1.20;;;19.90;99.90;;;;;;5057887;28;20048;-60
2021/08/07 09:24:52;;;;;;;4.50;1.60;;;20.00;99.90;;;;;;5051462;28;20101;-61
2021/08/07 09:27:28;;;;;;;7.88;1.98;;;20.10;99.90;;;;;;5057311;28;20057;-61
2021/08/07 09:29:54;;;;;;;6.20;1.55;;;20.30;99.90;;;;;;5050167;28;20109;-60
2021/08/07 09:32:20;;;;;;;8.20;1.60;;;20.30;99.90;;;;;;5059419;28;20044;-60
2021/08/07 09:35:06;;;;;;;5.35;1.40;;;20.30;99.90;;;;;;5060014;28;20499;-61
2021/08/07 09:37:32;;;;;;;6.97;1.58;;;20.50;99.90;;;;;;5059997;28;20045;-62
2021/08/07 09:40:02;;;;;;;7.70;1.60;;;20.50;99.90;;;;;;5058940;28;20038;-60
2021/08/07 09:42:31;;;;;;;2.85;0.98;;;20.70;99.90;;;;;;5057818;28;21192;-61
2021/08/07 09:45:06;;;;;;;10.23;1.70;;;20.80;99.90;;;;;;5059557;28;20413;-61
2021/08/07 09:47:32;;;;;;;6.97;1.90;;;20.90;99.90;;;;;;5060328;28;20061;-61
2021/08/07 09:50:00;;;;;;;5.00;1.17;;;20.70;99.90;;;;;;5059025;28;20500;-62
2021/08/07 09:52:37;;;;;;;4.47;1.10;;;20.60;99.90;;;;;;5053861;28;20521;-62
2021/08/07 09:55:03;;;;;;;4.28;1.33;;;20.60;99.90;;;;;;5058558;28;20041;-62
2021/08/07 09:57:30;;;;;;;6.10;1.17;;;20.70;99.90;;;;;;5050235;28;20178;-61
2021/08/07 09:59:56;;;;;;;5.82;1.40;;;20.80;99.90;;;;;;5059120;28;20041;-61
2021/08/07 10:02:35;;;;;;;4.30;1.27;;;21.00;99.90;;;;;;5051173;28;20060;-61
2021/08/07 10:05:01;;;;;;;7.97;2.20;;;;;;;;;;5047587;28;20141;-61
2021/08/07 10:07:28;;;;;;;5.55;1.77;;;21.40;99.90;;;;;;5054994;28;20045;-62
2021/08/07 10:09:55;;;;;;;4.88;1.23;;;21.70;99.90;;;;;;5062351;28;20045;-62
2021/08/07 10:12:21;;;;;;;2.92;1.02;;;22.10;99.90;;;;;;5063508;28;20059;-61
2021/08/07 10:14:47;;;;;;;4.68;0.98;;;22.20;99.90;;;;;;5057442;28;20045;-60
2021/08/07 10:17:17;;;;;;;3.90;1.10;;;22.20;99.90;;;;;;5063722;28;20040;-62
2021/08/07 10:19:45;;;;;;;3.38;0.75;;;22.00;99.90;;;;;;5056638;28;20052;-62
2021/08/07 10:22:13;;;;;;;5.55;1.58;;;22.10;99.90;;;;;;5062912;28;20041;-61
2021/08/07 10:24:42;;;;;;;3.35;1.00;;;21.90;99.90;;;;;;5055962;28;20045;-61
2021/08/07 10:27:09;;;;;;;4.28;1.17;;;21.90;99.90;;;;;;5061888;28;20053;-62
2021/08/07 10:29:50;;;;;;;3.72;1.00;;;21.80;99.90;;;;;;5054991;28;20113;-61
2021/08/07 10:32:17;;;;;;;2.38;0.68;;;21.80;99.90;;;;;;5062082;28;20064;-62
2021/08/07 10:35:02;;;;;;;4.23;1.10;;;21.90;99.90;;;;;;5064696;28;20045;-62
2021/08/07 10:37:28;;;;;;;4.85;1.05;;;22.10;99.90;;;;;;5059914;28;20060;-61
2021/08/07 10:39:53;;;;;;;1.73;0.82;;;22.00;99.90;;;;;;5053250;28;20049;-61
2021/08/07 10:42:20;;;;;;;5.43;0.73;;;22.20;99.90;;;;;;5060889;28;20128;-61
2021/08/07 10:44:47;;;;;;;3.13;0.90;;;22.30;98.60;;;;;;5065009;28;20040;-61
2021/08/07 10:47:13;;;;;;;2.63;1.00;;;22.60;99.90;;;;;;5059067;28;20057;-61
2021/08/07 10:49:45;;;;;;;3.20;0.73;;;22.90;99.90;;;;;;5065693;28;20088;-61
2021/08/07 10:52:20;;;;;;;2.35;0.70;;;23.20;99.00;;;;;;5057931;28;20051;-61
2021/08/07 10:54:47;;;;;;;2.08;0.75;;;22.90;98.00;;;;;;5064866;28;20068;-61
2021/08/07 10:57:39;;;;;;;3.75;1.23;;;22.70;96.60;;;;;;5051956;28;20037;-60
2021/08/07 11:00:18;;;;;;;2.88;0.98;;;22.60;98.90;;;;;;5050051;28;20046;-60
2021/08/07 11:02:44;;;;;;;2.25;1.00;;;22.70;99.00;;;;;;5055081;28;20285;-60
2021/08/07 11:05:11;;;;;;;5.07;1.10;;;22.90;98.60;;;;;;5061104;28;20038;-60
2021/08/07 11:07:37;;;;;;;2.87;0.70;;;23.10;98.60;;;;;;5056086;28;20100;-60
2021/08/07 11:10:15;;;;;;;2.70;0.90;;;23.10;98.50;;;;;;5064096;28;20123;-60
2021/08/07 11:12:42;;;;;;;;;;;22.90;96.70;;;;;;5061909;28;20042;-60
2021/08/07 11:15:31;;;;;;;1.42;0.57;;;22.80;96.70;;;;;;5058496;28;19921;-60
2021/08/07 11:18:17;;;;;;;2.80;0.90;;;22.70;97.10;;;;;;5056715;28;20065;-61
2021/08/07 11:20:43;;;;;;;2.28;1.05;;;22.50;97.10;;;;;;5062039;28;20063;-61
2021/08/07 11:23:11;;;;;;;2.65;1.00;;;22.60;97.70;;;;;;5058170;28;20084;-60
2021/08/07 11:25:51;;;;;;;3.03;0.80;;;22.90;96.50;;;;;;5060185;28;20066;-61
2021/08/07 11:28:19;;;;;;;3.05;0.90;;;23.00;97.30;;;;;;5057279;28;20042;-61
2021/08/07 11:30:45;;;;;;;2.33;0.80;;;22.90;97.30;;;;;;5059705;28;20048;-60
2021/08/07 11:33:11;;;;;;;2.45;0.80;;;23.10;97.30;;;;;;5064314;28;20041;-60
2021/08/07 11:35:49;;;;;;;8.52;0.95;;;23.10;97.90;;;;;;5060077;28;20052;-61
2021/08/07 11:38:17;;;;;;;2.25;0.80;;;23.00;97.10;;;;;;5057264;28;20103;-60
2021/08/07 11:40:55;;;;;;;6.32;1.17;;;23.10;98.20;;;;;;5059322;28;20049;-60
2021/08/07 11:43:24;;;;;;;2.78;1.20;;;23.50;97.10;;;;;;5056702;28;20053;-60
2021/08/07 11:45:57;;;;;;;3.03;0.85;;;23.80;97.60;;;;;;5055328;28;20051;-60
2021/08/07 11:48:24;;;;;;;3.15;0.98;;;23.60;96.10;;;;;;5055987;28;20509;-60
2021/08/07 11:50:50;;;;;;;3.72;0.95;;;23.90;95.00;;;;;;5053241;28;20045;-60
2021/08/07 11:53:20;;;;;;;3.88;1.17;;;24.70;96.40;;;;;;5057976;28;20302;-61
2021/08/07 11:56:03;;;;;;;3.67;0.88;;;25.20;90.80;;;;;;5051582;28;20065;-60
2021/08/07 11:58:30;;;;;;;6.28;1.23;;;25.20;86.30;;;;;;5057805;28;20037;-61
2021/08/07 12:01:01;;;;;;;4.10;0.77;;;25.00;84.30;;;;;;5056370;28;20051;-60
2021/08/07 12:03:37;;;;;;;2.40;0.60;;;24.90;84.30;;;;;;5058761;28;20037;-61
2021/08/07 12:06:03;;;;;;;2.70;0.80;;;25.30;88.60;;;;;;5055325;28;20139;-61
2021/08/07 12:08:32;;;;;;;2.17;0.88;;;25.80;92.20;;;;;;5062221;28;20104;-61
2021/08/07 12:11:00;;;;;;;1.77;0.63;;;26.20;82.40;;;;;;5055902;28;20118;-61
2021/08/07 12:13:32;;;;;;;1.90;0.98;;;26.30;63.90;;;;;;5053312;28;20505;-61
2021/08/07 12:16:02;;;;;;;3.33;1.13;;;26.40;64.60;;;;;;5055900;28;20046;-61
2021/08/07 12:18:50;;;;;;;2.10;0.57;;;26.60;67.40;;;;;;5049067;28;20042;-61
2021/08/07 12:21:38;;;;;;;2.25;0.90;;;26.60;64.70;;;;;;5063182;28;20055;-61
2021/08/07 12:24:30;;;;;;;2.50;0.80;;;26.80;67.80;;;;;;5055862;28;20101;-62
2021/08/07 12:26:59;;;;;;;1.67;0.80;;;26.90;59.80;;;;;;5060765;28;20131;-61
2021/08/07 12:29:29;;;;;;;1.92;0.93;;;26.60;59.50;;;;;;5063054;28;20033;-61
2021/08/07 12:31:57;;;;;;;3.15;1.02;;;26.80;65.70;;;;;;5060848;28;20098;-61
2021/08/07 12:34:26;;;;;;;3.53;0.90;;;26.80;71.90;;;;;;5050988;28;20041;-61
2021/08/07 12:36:58;;;;;;;1.60;0.82;;;27.40;70.70;;;;;;5060797;28;20505;-61
2021/08/07 12:39:26;;;;;;;3.90;1.23;;;27.80;63.60;;;;;;5053765;28;20039;-61
2021/08/07 12:41:52;;;;;;;3.35;0.70;;;27.30;58.00;;;;;;5060207;28;20053;-61
2021/08/07 12:44:20;;;;;;;2.53;0.80;;;27.40;60.20;;;;;;5052973;28;20079;-60
2021/08/07 12:46:47;;;;;;;1.55;0.80;;;27.10;64.70;;;;;;5059387;28;20049;-62
2021/08/07 12:49:13;;;;;;;1.95;0.80;;;26.60;61.30;;;;;;5052106;28;20045;-61